createdAt,value
2018-05-27T00:00:21.423Z,4.67
2018-05-27T00:02:48.810Z,3.70
2018-05-27T00:05:16.235Z,4.60
2018-05-27T00:07:43.693Z,4.03
2018-05-27T00:10:11.168Z,4.10
2018-05-27T00:12:38.602Z,4.23
2018-05-27T00:15:06.011Z,4.30
2018-05-27T00:17:33.427Z,4.10
2018-05-27T00:20:00.895Z,4.30
2018-05-27T00:22:28.332Z,4.10
2018-05-27T00:24:55.725Z,4.30
2018-05-27T00:27:23.141Z,4.20
2018-05-27T00:29:50.598Z,4.10
2018-05-27T00:32:18.017Z,4.60
2018-05-27T00:34:45.513Z,4.60
2018-05-27T00:37:12.909Z,4.20
2018-05-27T00:39:40.318Z,4.43
2018-05-27T00:42:07.802Z,4.57
2018-05-27T00:44:35.209Z,4.10
2018-05-27T00:47:02.605Z,5.03
2018-05-27T00:49:30.045Z,4.80
2018-05-27T00:51:57.444Z,4.50
2018-05-27T00:54:24.841Z,4.47
2018-05-27T00:56:52.306Z,4.80
2018-05-27T00:59:19.674Z,4.80
2018-05-27T01:01:47.146Z,4.33
2018-05-27T01:04:14.542Z,4.20
2018-05-27T01:06:42.022Z,4.70
2018-05-27T01:09:09.410Z,6.00
2018-05-27T01:11:36.892Z,4.87
2018-05-27T01:14:04.286Z,5.47
2018-05-27T01:16:31.677Z,5.23
2018-05-27T01:18:59.068Z,5.03
2018-05-27T01:21:26.601Z,5.40
2018-05-27T01:23:54.001Z,5.20
2018-05-27T01:26:21.498Z,5.67
2018-05-27T01:28:48.997Z,5.40
2018-05-27T01:31:16.501Z,5.03
2018-05-27T01:33:43.889Z,5.40
2018-05-27T01:36:11.290Z,5.57
2018-05-27T01:38:38.800Z,5.70
2018-05-27T01:41:06.213Z,6.07
2018-05-27T01:43:33.669Z,5.43
2018-05-27T01:46:01.065Z,5.00
2018-05-27T01:48:28.465Z,6.20
2018-05-27T01:50:55.891Z,5.93
2018-05-27T01:53:23.277Z,5.90
2018-05-27T01:55:50.665Z,5.83
2018-05-27T01:58:18.053Z,5.80
2018-05-27T02:00:45.453Z,5.70
2018-05-27T02:03:12.859Z,5.97
2018-05-27T02:05:40.254Z,7.00
2018-05-27T02:08:07.646Z,6.47
2018-05-27T02:10:35.058Z,6.70
2018-05-27T02:13:02.525Z,6.03
2018-05-27T02:15:29.917Z,6.73
2018-05-27T02:17:57.337Z,5.97
2018-05-27T02:20:24.729Z,6.77
2018-05-27T02:22:52.160Z,6.93
2018-05-27T02:25:19.532Z,6.63
2018-05-27T02:27:46.939Z,6.83
2018-05-27T02:30:14.335Z,6.87
2018-05-27T02:32:41.768Z,7.10
2018-05-27T02:35:09.224Z,7.47
2018-05-27T02:37:36.639Z,7.63
2018-05-27T02:40:04.043Z,7.70
2018-05-27T02:42:31.445Z,7.60
2018-05-27T02:44:58.889Z,6.70
2018-05-27T02:47:26.305Z,7.90
2018-05-27T02:49:53.706Z,8.37
2018-05-27T02:52:21.833Z,6.50
2018-05-27T02:54:49.321Z,7.87
2018-05-27T02:57:16.720Z,7.73
2018-05-27T02:59:44.130Z,8.20
2018-05-27T03:02:11.525Z,7.17
2018-05-27T03:04:38.918Z,8.20
2018-05-27T03:07:06.323Z,7.40
2018-05-27T03:09:33.751Z,8.20
2018-05-27T03:12:01.132Z,8.40
2018-05-27T03:14:28.550Z,8.00
2018-05-27T03:16:55.967Z,7.07
2018-05-27T03:19:23.349Z,8.10
2018-05-27T03:21:50.746Z,7.00
2018-05-27T03:24:18.128Z,8.80
2018-05-27T03:26:45.535Z,8.10
2018-05-27T03:29:12.955Z,8.10
2018-05-27T03:31:40.385Z,7.60
2018-05-27T03:34:07.770Z,8.77
2018-05-27T03:36:35.177Z,7.97
2018-05-27T03:39:02.573Z,8.60
2018-05-27T03:41:30.077Z,9.13
2018-05-27T03:43:57.453Z,8.60
2018-05-27T03:46:24.841Z,8.43
2018-05-27T03:48:52.314Z,8.27
2018-05-27T03:51:19.722Z,8.20
2018-05-27T03:53:47.130Z,8.70
2018-05-27T03:56:14.543Z,9.50
2018-05-27T03:58:41.940Z,9.33
2018-05-27T04:01:09.373Z,9.77
2018-05-27T04:03:36.856Z,8.80
2018-05-27T04:06:16.089Z,9.00
2018-05-27T04:08:43.572Z,9.00
2018-05-27T04:11:10.975Z,8.83
2018-05-27T04:13:38.389Z,9.10
2018-05-27T04:16:06.113Z,8.50
2018-05-27T04:18:33.508Z,9.00
2018-05-27T04:21:00.900Z,8.50
2018-05-27T04:23:28.305Z,8.80
2018-05-27T04:25:55.704Z,8.33
2018-05-27T04:28:23.295Z,8.10
2018-05-27T04:30:50.682Z,8.77
2018-05-27T04:33:18.085Z,8.40
2018-05-27T04:35:45.578Z,8.60
2018-05-27T04:38:13.065Z,8.30
2018-05-27T04:40:40.463Z,7.83
2018-05-27T04:43:07.841Z,9.03
2018-05-27T04:45:35.240Z,8.10
2018-05-27T04:48:02.660Z,8.00
2018-05-27T04:50:30.050Z,8.90
2018-05-27T04:52:57.529Z,8.70
2018-05-27T04:55:25.010Z,8.40
2018-05-27T04:57:52.440Z,8.30
2018-05-27T05:00:19.861Z,8.80
2018-05-27T05:02:47.269Z,7.90
2018-05-27T05:05:14.709Z,8.10
2018-05-27T05:07:42.100Z,7.33
2018-05-27T05:10:09.537Z,8.23
2018-05-27T05:12:36.941Z,7.50
2018-05-27T05:15:04.349Z,7.73
2018-05-27T05:17:31.801Z,7.90
2018-05-27T05:19:59.258Z,7.90
2018-05-27T05:22:26.766Z,7.60
2018-05-27T05:24:54.165Z,7.93
2018-05-27T05:27:21.629Z,6.80
2018-05-27T05:29:49.035Z,7.33
2018-05-27T05:32:16.535Z,8.43
2018-05-27T05:34:44.002Z,7.90
2018-05-27T05:37:11.458Z,8.73
2018-05-27T05:39:38.878Z,8.30
2018-05-27T05:42:06.290Z,9.10
2018-05-27T05:44:33.698Z,8.57
2018-05-27T05:47:01.109Z,8.30
2018-05-27T05:49:28.510Z,8.73
2018-05-27T05:51:55.971Z,9.00
2018-05-27T05:54:23.365Z,8.17
2018-05-27T05:56:50.839Z,7.57
2018-05-27T05:59:18.237Z,8.40
2018-05-27T06:01:45.637Z,9.93
2018-05-27T06:04:13.038Z,8.73
2018-05-27T06:06:40.440Z,8.10
2018-05-27T06:09:07.848Z,9.00
2018-05-27T06:11:35.244Z,7.63
2018-05-27T06:14:02.700Z,7.23
2018-05-27T06:16:30.086Z,8.00
2018-05-27T06:18:57.518Z,8.30
2018-05-27T06:21:24.980Z,8.70
2018-05-27T06:23:52.429Z,8.00
2018-05-27T06:26:19.881Z,8.13
2018-05-27T06:28:47.304Z,8.47
2018-05-27T06:31:14.701Z,6.50
2018-05-27T06:33:42.104Z,7.43
2018-05-27T06:36:09.506Z,7.00
2018-05-27T06:38:36.960Z,6.90
2018-05-27T06:41:04.389Z,7.57
2018-05-27T06:43:32.005Z,8.00
2018-05-27T06:45:59.425Z,6.57
2018-05-27T06:48:26.816Z,7.23
2018-05-27T06:50:54.230Z,7.73
2018-05-27T06:53:21.735Z,6.87
2018-05-27T06:55:49.149Z,6.77
2018-05-27T06:58:16.545Z,6.23
2018-05-27T07:00:43.949Z,6.60
2018-05-27T07:03:11.411Z,6.10
2018-05-27T07:05:38.812Z,5.23
2018-05-27T07:08:06.197Z,6.97
2018-05-27T07:10:33.597Z,5.93
2018-05-27T07:13:02.967Z,6.43
2018-05-27T07:15:30.384Z,5.47
2018-05-27T07:17:57.785Z,5.60
2018-05-27T07:20:25.177Z,5.17
2018-05-27T07:22:52.656Z,5.10
2018-05-27T07:25:20.084Z,5.30
2018-05-27T07:27:47.542Z,4.60
2018-05-27T07:30:15.835Z,4.80
2018-05-27T07:32:43.225Z,5.00
2018-05-27T07:35:10.639Z,4.90
2018-05-27T07:37:38.088Z,4.40
2018-05-27T07:40:05.577Z,5.30
2018-05-27T07:42:32.966Z,4.43
2018-05-27T07:45:00.485Z,4.93
2018-05-27T07:47:27.877Z,4.60
2018-05-27T07:49:55.293Z,4.60
2018-05-27T07:52:22.684Z,5.57
2018-05-27T07:54:50.101Z,5.07
2018-05-27T07:57:17.484Z,4.27
2018-05-27T07:59:44.893Z,4.40
2018-05-27T08:02:12.312Z,4.50
2018-05-27T08:04:39.735Z,4.77
2018-05-27T08:07:07.172Z,4.70
2018-05-27T08:09:34.577Z,4.97
2018-05-27T08:12:02.091Z,4.37
2018-05-27T08:14:29.505Z,4.80
2018-05-27T08:16:56.993Z,3.83
2018-05-27T08:19:24.402Z,4.27
2018-05-27T08:21:51.934Z,4.40
2018-05-27T08:24:19.318Z,3.93
2018-05-27T08:26:46.853Z,4.00
2018-05-27T08:29:14.280Z,3.93
2018-05-27T08:31:41.717Z,4.20
2018-05-27T08:34:09.105Z,3.90
2018-05-27T08:36:36.570Z,4.27
2018-05-27T08:39:03.988Z,3.50
2018-05-27T08:41:31.484Z,4.07
2018-05-27T08:43:58.868Z,3.20
2018-05-27T08:46:26.265Z,3.80
2018-05-27T08:48:53.723Z,3.20
2018-05-27T08:51:21.111Z,3.97
2018-05-27T08:53:48.504Z,3.87
2018-05-27T08:56:15.905Z,3.80
2018-05-27T08:58:43.296Z,3.67
2018-05-27T09:01:10.784Z,4.30
2018-05-27T09:03:38.156Z,3.43
2018-05-27T09:06:05.537Z,3.40
2018-05-27T09:08:32.945Z,3.70
2018-05-27T09:11:00.345Z,4.10
2018-05-27T09:13:27.760Z,3.70
2018-05-27T09:15:55.164Z,4.33
2018-05-27T09:18:22.582Z,3.90
2018-05-27T09:20:49.999Z,3.63
2018-05-27T09:23:17.508Z,3.87
2018-05-27T09:25:45.058Z,3.60
2018-05-27T09:28:12.432Z,3.90
2018-05-27T09:30:39.843Z,3.97
2018-05-27T09:33:07.237Z,3.60
2018-05-27T09:35:34.640Z,3.20
2018-05-27T09:38:02.061Z,3.60
2018-05-27T09:40:29.458Z,3.37
2018-05-27T09:42:56.938Z,3.40
2018-05-27T09:45:24.484Z,3.40
2018-05-27T09:47:51.809Z,2.93
2018-05-27T09:50:19.206Z,3.03
2018-05-27T09:52:46.669Z,3.50
2018-05-27T09:55:14.053Z,3.40
2018-05-27T09:57:41.481Z,3.10
2018-05-27T10:00:08.902Z,3.30
2018-05-27T10:02:36.395Z,2.93
2018-05-27T10:05:03.786Z,3.23
2018-05-27T10:07:31.208Z,2.43
2018-05-27T10:09:58.607Z,2.87
2018-05-27T10:12:26.039Z,3.10
2018-05-27T10:14:53.492Z,3.50
2018-05-27T10:17:21.152Z,2.63
2018-05-27T10:19:48.553Z,3.63
2018-05-27T10:22:15.984Z,3.23
2018-05-27T10:24:43.385Z,3.23
2018-05-27T10:27:10.787Z,2.90
2018-05-27T10:29:38.226Z,3.30
2018-05-27T10:32:05.626Z,3.17
2018-05-27T10:34:33.124Z,3.47
2018-05-27T10:37:00.544Z,3.43
2018-05-27T10:39:28.015Z,3.30
2018-05-27T10:41:55.413Z,3.30
2018-05-27T10:44:22.850Z,3.60
2018-05-27T10:46:50.256Z,3.70
2018-05-27T10:49:17.750Z,3.40
2018-05-27T10:51:45.209Z,3.30
2018-05-27T10:54:12.601Z,3.43
2018-05-27T10:56:40.021Z,3.60
2018-05-27T10:59:07.495Z,3.20
2018-05-27T11:01:34.916Z,3.43
2018-05-27T11:04:02.513Z,3.30
2018-05-27T11:06:29.972Z,3.80
2018-05-27T11:08:57.359Z,4.63
2018-05-27T11:11:24.770Z,3.53
2018-05-27T11:13:52.249Z,3.87
2018-05-27T11:16:19.774Z,3.30
2018-05-27T11:18:47.186Z,3.53
2018-05-27T11:21:14.594Z,4.23
2018-05-27T11:23:41.985Z,3.70
2018-05-27T11:26:09.417Z,3.73
2018-05-27T11:28:36.808Z,3.23
2018-05-27T11:31:04.327Z,4.07
2018-05-27T11:33:31.734Z,4.90
2018-05-27T11:35:59.122Z,3.57
2018-05-27T11:38:26.613Z,3.10
2018-05-27T11:40:54.000Z,4.03
2018-05-27T11:43:21.400Z,3.50
2018-05-27T11:45:48.990Z,3.60
2018-05-27T11:48:16.430Z,3.43
2018-05-27T11:50:43.853Z,3.80
2018-05-27T11:53:11.251Z,3.00
2018-05-27T11:55:38.641Z,3.27
2018-05-27T11:58:06.117Z,2.60
2018-05-27T12:00:33.517Z,3.53
2018-05-27T12:03:01.026Z,2.50
2018-05-27T12:05:28.417Z,3.30
2018-05-27T12:07:55.821Z,3.20
2018-05-27T12:10:23.293Z,5.07
2018-05-27T12:12:50.759Z,4.83
2018-05-27T12:15:18.152Z,12.90
2018-05-27T12:17:45.614Z,9.07
2018-05-27T12:20:13.108Z,4.80
2018-05-27T12:22:40.565Z,3.27
2018-05-27T12:25:07.997Z,4.07
2018-05-27T12:27:35.488Z,3.10
2018-05-27T12:30:03.834Z,3.78
2018-05-27T12:32:31.243Z,2.90
2018-05-27T12:34:58.708Z,3.20
2018-05-27T12:37:26.113Z,3.10
2018-05-27T12:39:53.509Z,3.40
2018-05-27T12:42:20.933Z,3.40
2018-05-27T12:44:48.409Z,3.70
2018-05-27T12:47:15.837Z,3.50
2018-05-27T12:49:43.362Z,3.23
2018-05-27T12:52:10.800Z,3.00
2018-05-27T12:54:38.205Z,3.57
2018-05-27T12:57:05.601Z,3.13
2018-05-27T12:59:33.085Z,3.00
2018-05-27T13:02:00.488Z,3.43
2018-05-27T13:04:27.969Z,3.63
2018-05-27T13:06:55.388Z,3.30
2018-05-27T13:09:22.765Z,3.20
2018-05-27T13:11:50.794Z,3.03
2018-05-27T13:14:18.186Z,3.60
2018-05-27T13:16:45.692Z,3.33
2018-05-27T13:19:13.017Z,4.07
2018-05-27T13:21:40.413Z,3.20
2018-05-27T13:24:07.805Z,2.90
2018-05-27T13:26:35.297Z,3.67
2018-05-27T13:29:02.721Z,3.50
2018-05-27T13:31:30.146Z,3.33
2018-05-27T13:33:57.578Z,3.10
2018-05-27T13:36:24.979Z,3.13
2018-05-27T13:38:52.364Z,2.87
2018-05-27T13:41:19.762Z,3.57
2018-05-27T13:43:47.182Z,3.40
2018-05-27T13:46:14.664Z,3.57
2018-05-27T13:48:42.101Z,3.93
2018-05-27T13:51:09.575Z,3.43
2018-05-27T13:53:36.969Z,3.10
2018-05-27T13:56:04.412Z,3.47
2018-05-27T13:58:31.830Z,3.43
2018-05-27T14:00:59.304Z,3.40
2018-05-27T14:03:26.749Z,3.20
2018-05-27T14:05:54.134Z,3.03
2018-05-27T14:08:21.540Z,3.50
2018-05-27T14:10:48.950Z,2.80
2018-05-27T14:13:16.386Z,3.60
2018-05-27T14:15:43.769Z,3.47
2018-05-27T14:18:11.191Z,3.30
2018-05-27T14:20:38.660Z,3.60
2018-05-27T14:23:06.065Z,3.63
2018-05-27T14:25:33.561Z,3.37
2018-05-27T14:28:00.945Z,3.37
2018-05-27T14:30:28.366Z,3.27
2018-05-27T14:32:55.826Z,3.50
2018-05-27T14:35:23.221Z,3.13
2018-05-27T14:37:50.645Z,3.50
2018-05-27T14:40:18.113Z,3.30
2018-05-27T14:42:45.569Z,4.27
2018-05-27T14:45:12.949Z,3.20
2018-05-27T14:47:40.345Z,3.20
2018-05-27T14:50:07.745Z,3.33
2018-05-27T14:52:35.177Z,3.37
2018-05-27T14:55:02.605Z,4.00
2018-05-27T14:57:30.100Z,3.20
2018-05-27T14:59:57.865Z,3.20
2018-05-27T15:02:25.214Z,3.33
2018-05-27T15:04:52.609Z,4.17
2018-05-27T15:07:20.015Z,3.43
2018-05-27T15:09:47.478Z,2.77
2018-05-27T15:12:15.008Z,3.70
2018-05-27T15:14:42.405Z,2.97
2018-05-27T15:17:09.785Z,3.40
2018-05-27T15:19:37.192Z,3.00
2018-05-27T15:22:04.601Z,3.10
2018-05-27T15:24:32.023Z,3.83
2018-05-27T15:26:59.483Z,3.10
2018-05-27T15:29:26.942Z,3.40
2018-05-27T15:31:54.373Z,3.00
2018-05-27T15:34:21.775Z,3.33
2018-05-27T15:36:49.156Z,3.20
2018-05-27T15:39:16.562Z,3.17
2018-05-27T15:41:43.949Z,2.97
2018-05-27T15:44:11.358Z,3.30
2018-05-27T15:46:38.858Z,3.10
2018-05-27T15:49:06.265Z,3.33
2018-05-27T15:51:33.676Z,3.17
2018-05-27T15:54:01.104Z,3.23
2018-05-27T15:56:28.570Z,3.50
2018-05-27T15:58:55.985Z,3.27
2018-05-27T16:01:23.478Z,3.27
2018-05-27T16:03:50.899Z,3.40
2018-05-27T16:06:18.365Z,3.00
2018-05-27T16:08:45.824Z,3.23
2018-05-27T16:11:13.237Z,3.80
2018-05-27T16:13:40.735Z,4.03
2018-05-27T16:16:08.197Z,3.70
2018-05-27T16:18:35.601Z,3.77
2018-05-27T16:21:02.997Z,3.80
2018-05-27T16:23:30.446Z,3.57
2018-05-27T16:25:57.840Z,4.50
2018-05-27T16:28:25.253Z,3.40
2018-05-27T16:30:52.738Z,3.67
2018-05-27T16:33:20.132Z,3.87
2018-05-27T16:35:47.533Z,3.70
2018-05-27T16:38:14.927Z,3.43
2018-05-27T16:40:42.367Z,4.07
2018-05-27T16:43:09.748Z,3.57
2018-05-27T16:45:37.270Z,3.70
2018-05-27T16:48:04.718Z,3.73
2018-05-27T16:50:32.138Z,4.37
2018-05-27T16:52:59.648Z,3.00
2018-05-27T16:55:27.083Z,3.20
2018-05-27T16:57:54.469Z,3.60
2018-05-27T17:00:21.915Z,3.75
2018-05-27T17:02:49.399Z,3.47
2018-05-27T17:05:16.796Z,3.43
2018-05-27T17:07:44.272Z,4.33
2018-05-27T17:10:11.639Z,3.60
2018-05-27T17:12:39.133Z,3.77
2018-05-27T17:15:06.533Z,3.37
2018-05-27T17:17:33.923Z,3.93
2018-05-27T17:20:01.334Z,3.77
2018-05-27T17:22:28.735Z,3.20
2018-05-27T17:24:56.120Z,3.63
2018-05-27T17:27:23.528Z,3.80
2018-05-27T17:29:50.937Z,3.83
2018-05-27T17:32:18.375Z,4.10
2018-05-27T17:34:45.812Z,4.57
2018-05-27T17:37:13.261Z,3.40
2018-05-27T17:39:40.725Z,4.10
2018-05-27T17:42:08.129Z,3.60
2018-05-27T17:44:35.546Z,3.60
2018-05-27T17:47:03.001Z,3.37
2018-05-27T17:49:30.381Z,3.57
2018-05-27T17:51:57.776Z,3.57
2018-05-27T17:54:25.339Z,3.57
2018-05-27T17:56:52.726Z,3.67
2018-05-27T17:59:20.114Z,3.60
2018-05-27T18:01:47.653Z,4.60
2018-05-27T18:04:15.090Z,3.20
2018-05-27T18:06:42.444Z,3.80
2018-05-27T18:09:09.829Z,4.07
2018-05-27T18:11:37.256Z,3.80
2018-05-27T18:14:04.644Z,3.50
2018-05-27T18:16:32.049Z,4.30
2018-05-27T18:18:59.529Z,3.70
2018-05-27T18:21:26.988Z,3.80
2018-05-27T18:23:54.495Z,3.57
2018-05-27T18:26:21.837Z,4.03
2018-05-27T18:28:49.469Z,3.83
2018-05-27T18:31:16.877Z,4.10
2018-05-27T18:33:44.265Z,4.03
2018-05-27T18:36:11.757Z,4.00
2018-05-27T18:38:39.192Z,5.13
2018-05-27T18:41:06.614Z,4.50
2018-05-27T18:43:34.002Z,4.07
2018-05-27T18:46:01.393Z,4.37
2018-05-27T18:48:28.791Z,4.13
2018-05-27T18:50:56.197Z,4.50
2018-05-27T18:53:23.640Z,4.60
2018-05-27T18:55:50.993Z,3.50
2018-05-27T18:58:18.443Z,4.77
2018-05-27T19:00:45.898Z,4.63
2018-05-27T19:03:13.301Z,5.20
2018-05-27T19:05:40.714Z,4.27
2018-05-27T19:08:08.103Z,4.20
2018-05-27T19:10:35.505Z,5.00
2018-05-27T19:13:02.964Z,4.83
2018-05-27T19:15:30.304Z,5.10
2018-05-27T19:17:57.757Z,5.10
2018-05-27T19:20:25.162Z,5.93
2018-05-27T19:22:53.460Z,5.50
2018-05-27T19:25:20.832Z,5.53
2018-05-27T19:27:48.354Z,5.57
2018-05-27T19:30:15.740Z,5.87
2018-05-27T19:32:43.157Z,6.50
2018-05-27T19:35:10.553Z,6.30
2018-05-27T19:37:37.949Z,5.87
2018-05-27T19:40:05.348Z,6.40
2018-05-27T19:42:32.740Z,6.17
2018-05-27T19:45:00.160Z,6.73
2018-05-27T19:47:27.594Z,6.30
2018-05-27T19:49:54.989Z,6.70
2018-05-27T19:52:22.405Z,6.50
2018-05-27T19:54:49.842Z,7.03
2018-05-27T19:57:17.213Z,5.97
2018-05-27T19:59:44.686Z,6.13
2018-05-27T20:02:12.143Z,7.30
2018-05-27T20:04:39.585Z,6.60
2018-05-27T20:07:07.040Z,6.67
2018-05-27T20:09:34.446Z,6.60
2018-05-27T20:12:01.864Z,6.40
2018-05-27T20:14:29.241Z,6.03
2018-05-27T20:16:56.657Z,6.20
2018-05-27T20:19:24.052Z,7.10
2018-05-27T20:21:51.445Z,7.37
2018-05-27T20:24:18.856Z,6.97
2018-05-27T20:26:46.273Z,7.50
2018-05-27T20:29:13.773Z,7.20
2018-05-27T20:31:41.200Z,7.00
2018-05-27T20:34:08.584Z,7.57
2018-05-27T20:36:36.020Z,6.77
2018-05-27T20:39:03.416Z,7.23
2018-05-27T20:41:30.818Z,7.80
2018-05-27T20:43:58.228Z,7.47
2018-05-27T20:46:25.647Z,7.13
2018-05-27T20:48:53.101Z,6.93
2018-05-27T20:51:20.486Z,6.50
2018-05-27T20:53:47.929Z,6.60
2018-05-27T20:56:15.349Z,6.90
2018-05-27T20:58:42.825Z,7.30
2018-05-27T21:01:10.213Z,7.67
2018-05-27T21:03:37.616Z,7.00
2018-05-27T21:06:05.008Z,7.10
2018-05-27T21:08:32.433Z,6.10
2018-05-27T21:10:59.841Z,6.80
2018-05-27T21:13:27.266Z,7.07
2018-05-27T21:15:54.729Z,6.47
2018-05-27T21:18:22.131Z,6.80
2018-05-27T21:20:49.525Z,7.40
2018-05-27T21:23:17.009Z,6.80
2018-05-27T21:25:44.426Z,7.13
2018-05-27T21:28:11.828Z,6.90
2018-05-27T21:30:39.236Z,7.53
2018-05-27T21:33:06.733Z,6.87
2018-05-27T21:35:34.133Z,7.40
2018-05-27T21:38:01.636Z,6.90
2018-05-27T21:40:29.036Z,6.37
2018-05-27T21:42:56.464Z,6.77
2018-05-27T21:45:23.904Z,7.30
2018-05-27T21:47:51.293Z,6.80
2018-05-27T21:50:18.715Z,7.10
2018-05-27T21:52:46.108Z,6.90
2018-05-27T21:55:13.526Z,7.57
2018-05-27T21:57:40.917Z,6.47
2018-05-27T22:00:08.317Z,6.80
2018-05-27T22:02:35.802Z,7.37
2018-05-27T22:05:03.193Z,7.70
2018-05-27T22:07:30.610Z,6.73
2018-05-27T22:09:58.008Z,6.93
2018-05-27T22:12:25.396Z,6.50
2018-05-27T22:14:52.809Z,6.50
2018-05-27T22:17:20.243Z,6.67
2018-05-27T22:19:47.689Z,6.67
2018-05-27T22:22:15.093Z,7.00
2018-05-27T22:24:42.480Z,7.17
2018-05-27T22:27:09.980Z,7.30
2018-05-27T22:29:37.424Z,6.57
2018-05-27T22:32:04.889Z,7.30
2018-05-27T22:34:32.309Z,7.30
2018-05-27T22:36:59.694Z,6.33
2018-05-27T22:39:27.102Z,6.53
2018-05-27T22:41:54.599Z,6.93
2018-05-27T22:44:21.998Z,6.63
2018-05-27T22:46:49.387Z,6.00
2018-05-27T22:49:16.794Z,6.57
2018-05-27T22:51:44.193Z,5.63
2018-05-27T22:54:11.625Z,6.30
2018-05-27T22:56:39.008Z,6.23
2018-05-27T22:59:06.409Z,6.30
2018-05-27T23:01:33.848Z,5.67
2018-05-27T23:04:01.245Z,5.50
2018-05-27T23:06:28.674Z,6.10
2018-05-27T23:08:56.129Z,6.30
2018-05-27T23:11:23.517Z,6.47
2018-05-27T23:13:50.971Z,5.90
2018-05-27T23:16:18.440Z,5.13
2018-05-27T23:18:45.861Z,6.00
2018-05-27T23:21:13.253Z,6.47
2018-05-27T23:23:41.293Z,6.37
2018-05-27T23:26:08.682Z,5.73
2018-05-27T23:28:36.091Z,6.10
2018-05-27T23:31:03.476Z,6.13
2018-05-27T23:33:30.890Z,6.70
2018-05-27T23:35:58.382Z,6.33
2018-05-27T23:38:25.774Z,6.80
2018-05-27T23:40:53.196Z,6.63
2018-05-27T23:43:20.637Z,6.10
2018-05-27T23:45:48.029Z,5.43
2018-05-27T23:48:15.464Z,6.90
2018-05-27T23:50:42.864Z,6.60
2018-05-27T23:53:10.257Z,6.10
2018-05-27T23:55:37.713Z,6.93
2018-05-27T23:58:05.105Z,6.57
